サンフランシスコ の空港の天気 - METARとTAF

サンフランシスコ国際空港 ( KSFO / SFO ) - アメリカ カリフォルニア州サンマテオ郡
飛行場実況気象(Metar)
観測時間05/25 14:56 PDT (05/25 21:56 UTC)
風向・風速西北西 7m/s
視程10km以上
天気現象
少しの雲 雲底高度 640m
気温29.4℃
湿度31%
気圧1011.4hPa
METARKSFO 252156Z 29013KT 10SM FEW021 29/11 A2987 RMK AO2 WSHFT 2106 SLP114 T02940106
過去の天気等 Google飛行場航空写真 Wunderground天気予報

過去48時間のMETAR

飛行場予報(TAF)
発表時間: 5/25 13:53 PDT (5/25 20:53 UTC)
予報対象時間: 25日14時 PDT ~ 26日17時 PDT
風向・風速北 5m/s
視程10km以上
なし
25日15時 PDT から
風向・風速西北西 7m/s
視程10km以上
なし
25日16時 PDT から
風向・風速西北西 8m/s 瞬間風速 13m/s
視程10km以上
なし
25日21時 PDT から
風向・風速西 4m/s
視程10km以上
なし
26日7時 PDT から
風向・風速不定 2m/s
視程10km以上
なし
26日9時 PDT から
風向・風速北 3m/s
視程10km以上
なし
26日14時 PDT から
風向・風速西北西 8m/s
視程10km以上
なし
KSFO 252053Z 2521/2624 36009KT P6SM SKC
FM252200 29014KT P6SM SKC
FM252300 29015G25KT P6SM SKC
FM260400 28008KT P6SM SKC
FM261400 VRB04KT P6SM SKC
FM261600 36006KT P6SM SKC
FM262100 29015KT P6SM SKC